createdAt,value
2018-10-21T00:00:50.622Z,10.60
2018-10-21T00:03:24.976Z,10.60
2018-10-21T00:05:59.344Z,10.60
2018-10-21T00:08:33.637Z,10.70
2018-10-21T00:11:07.917Z,10.60
2018-10-21T00:13:42.272Z,10.60
2018-10-21T00:16:16.576Z,10.60
2018-10-21T00:18:50.959Z,10.60
2018-10-21T00:21:25.195Z,10.50
2018-10-21T00:23:59.761Z,10.50
2018-10-21T00:26:34.132Z,10.50
2018-10-21T00:29:08.440Z,10.50
2018-10-21T00:31:42.821Z,10.50
2018-10-21T00:34:17.031Z,10.50
2018-10-21T00:36:51.205Z,10.50
2018-10-21T00:39:25.495Z,10.50
2018-10-21T00:41:59.806Z,10.50
2018-10-21T00:44:34.118Z,10.60
2018-10-21T00:47:08.462Z,10.60
2018-10-21T00:49:43.661Z,10.60
2018-10-21T00:52:18.002Z,10.60
2018-10-21T00:54:52.540Z,10.60
2018-10-21T00:57:26.745Z,10.70
2018-10-21T01:00:01.064Z,10.60
2018-10-21T01:02:35.192Z,10.70
2018-10-21T01:05:11.001Z,10.70
2018-10-21T01:07:45.286Z,10.80
2018-10-21T01:10:19.997Z,10.80
2018-10-21T01:12:54.612Z,10.80
2018-10-21T01:15:29.870Z,10.80
2018-10-21T01:18:06.646Z,10.80
2018-10-21T01:20:41.117Z,10.80
2018-10-21T01:23:15.368Z,10.80
2018-10-21T01:25:49.659Z,10.80
2018-10-21T01:28:24.738Z,10.70
2018-10-21T01:30:59.845Z,10.70
2018-10-21T01:33:34.902Z,10.70
2018-10-21T01:36:09.225Z,10.70
2018-10-21T01:38:43.607Z,10.70
2018-10-21T01:41:17.872Z,10.70
2018-10-21T01:43:52.427Z,10.80
2018-10-21T01:46:27.225Z,10.70
2018-10-21T01:49:01.622Z,10.80
2018-10-21T01:51:36.116Z,10.80
2018-10-21T01:54:11.359Z,10.70
2018-10-21T01:56:46.852Z,10.70
2018-10-21T01:59:21.048Z,10.70
2018-10-21T02:01:55.756Z,10.70
2018-10-21T02:04:31.099Z,10.70
2018-10-21T02:07:05.503Z,10.70
2018-10-21T02:09:39.856Z,10.70
2018-10-21T02:12:15.583Z,10.70
2018-10-21T02:14:49.969Z,10.70
2018-10-21T02:17:24.333Z,10.60
2018-10-21T02:19:58.648Z,10.60
2018-10-21T02:22:34.025Z,10.70
2018-10-21T02:25:08.532Z,10.70
2018-10-21T02:27:43.744Z,10.70
2018-10-21T02:30:20.289Z,10.70
2018-10-21T02:32:55.033Z,10.70
2018-10-21T02:35:29.438Z,10.70
2018-10-21T02:38:03.813Z,10.70
2018-10-21T02:41:47.224Z,10.70
2018-10-21T02:44:22.200Z,10.70
2018-10-21T02:46:58.254Z,10.70
2018-10-21T02:49:32.448Z,10.70
2018-10-21T02:52:08.872Z,10.70
2018-10-21T02:54:43.719Z,10.70
2018-10-21T02:57:18.074Z,10.70
2018-10-21T02:59:53.372Z,10.70
2018-10-21T03:02:27.734Z,10.70
2018-10-21T03:05:02.151Z,10.70
2018-10-21T03:07:36.546Z,10.70
2018-10-21T03:10:10.788Z,10.70
2018-10-21T03:12:45.266Z,10.70
2018-10-21T03:15:19.534Z,10.70
2018-10-21T03:17:53.812Z,10.70
2018-10-21T03:20:28.156Z,10.70
2018-10-21T03:23:02.540Z,10.70
2018-10-21T03:25:37.384Z,10.60
2018-10-21T03:28:11.617Z,10.60
2018-10-21T03:30:45.972Z,10.60
2018-10-21T03:33:20.428Z,10.50
2018-10-21T03:35:54.577Z,10.50
2018-10-21T03:38:29.054Z,10.50
2018-10-21T03:41:03.292Z,10.40
2018-10-21T03:43:37.599Z,10.30
2018-10-21T03:46:13.238Z,10.20
2018-10-21T03:48:47.571Z,10.10
2018-10-21T03:51:23.040Z,10.10
2018-10-21T03:53:58.161Z,10.00
2018-10-21T03:56:32.401Z,10.00
2018-10-21T03:59:07.364Z,10.00
2018-10-21T04:01:41.673Z,10.00
2018-10-21T04:04:16.250Z,10.00
2018-10-21T04:06:53.128Z,10.00
2018-10-21T04:09:27.560Z,10.00
2018-10-21T04:12:01.873Z,10.00
2018-10-21T04:14:36.176Z,9.90
2018-10-21T04:17:11.368Z,9.80
2018-10-21T04:19:45.635Z,9.90
2018-10-21T04:22:20.005Z,9.80
2018-10-21T04:24:54.324Z,9.80
2018-10-21T04:27:28.680Z,9.90
2018-10-21T04:30:03.696Z,9.80
2018-10-21T04:32:42.293Z,9.80
2018-10-21T04:35:18.636Z,9.70
2018-10-21T04:38:34.341Z,9.70
2018-10-21T04:41:08.517Z,9.70
2018-10-21T04:43:43.296Z,9.80
2018-10-21T04:46:18.348Z,9.70
2018-10-21T04:48:52.589Z,9.60
2018-10-21T04:51:26.857Z,9.60
2018-10-21T04:54:01.589Z,9.50
2018-10-21T04:56:35.748Z,9.40
2018-10-21T04:59:10.068Z,9.40
2018-10-21T05:01:45.177Z,9.40
2018-10-21T05:04:19.368Z,9.60
2018-10-21T05:06:54.055Z,9.70
2018-10-21T05:09:28.336Z,9.70
2018-10-21T05:12:02.637Z,9.80
2018-10-21T05:14:36.969Z,9.80
2018-10-21T05:17:12.037Z,9.80
2018-10-21T05:19:46.835Z,9.90
2018-10-21T05:22:21.320Z,9.90
2018-10-21T05:24:55.805Z,9.90
2018-10-21T05:27:30.038Z,10.00
2018-10-21T05:30:05.012Z,9.90
2018-10-21T05:32:39.383Z,9.90
2018-10-21T05:35:14.595Z,9.80
2018-10-21T05:37:48.956Z,9.80
2018-10-21T05:40:23.491Z,9.80
2018-10-21T05:42:57.781Z,9.80
2018-10-21T05:45:32.156Z,9.80
2018-10-21T05:48:06.412Z,9.80
2018-10-21T05:53:21.432Z,9.70
2018-10-21T05:55:56.125Z,9.80
2018-10-21T05:58:30.650Z,9.80
2018-10-21T06:01:04.912Z,9.80
2018-10-21T06:03:39.282Z,9.90
2018-10-21T06:06:13.658Z,9.90
2018-10-21T06:08:47.853Z,9.90
2018-10-21T06:11:22.681Z,10.00
2018-10-21T06:13:57.074Z,10.00
2018-10-21T06:16:35.939Z,10.00
2018-10-21T06:19:12.897Z,10.00
2018-10-21T06:21:47.138Z,10.00
2018-10-21T06:24:21.860Z,10.10
2018-10-21T06:26:56.196Z,10.10
2018-10-21T06:29:30.406Z,10.10
2018-10-21T06:32:04.918Z,10.10
2018-10-21T06:34:39.312Z,10.10
2018-10-21T06:37:13.668Z,10.10
2018-10-21T06:39:49.001Z,10.10
2018-10-21T06:42:23.496Z,10.10
2018-10-21T06:44:58.348Z,10.10
2018-10-21T06:47:32.624Z,10.00
2018-10-21T06:50:09.279Z,10.00
2018-10-21T06:52:44.214Z,9.90
2018-10-21T06:55:18.648Z,9.90
2018-10-21T06:57:53.039Z,9.80
2018-10-21T07:00:28.133Z,9.80
2018-10-21T07:03:02.748Z,9.90
2018-10-21T07:06:16.763Z,10.00
2018-10-21T07:08:52.338Z,10.10
2018-10-21T07:11:27.665Z,10.30
2018-10-21T07:14:02.137Z,10.40
2018-10-21T07:16:36.516Z,10.50
2018-10-21T07:19:10.589Z,10.60
2018-10-21T07:21:44.997Z,10.80
2018-10-21T07:24:19.284Z,10.90
2018-10-21T07:26:54.621Z,10.90
2018-10-21T07:29:30.064Z,10.90
2018-10-21T07:32:04.657Z,11.00
2018-10-21T07:34:38.950Z,11.10
2018-10-21T07:37:13.363Z,11.10
2018-10-21T07:39:47.684Z,11.10
2018-10-21T07:42:22.210Z,11.10
2018-10-21T07:44:57.878Z,11.10
2018-10-21T07:47:32.374Z,11.10
2018-10-21T07:50:06.857Z,11.10
2018-10-21T07:52:41.243Z,11.10
2018-10-21T07:55:17.568Z,11.10
2018-10-21T07:57:51.701Z,11.10
2018-10-21T08:00:26.237Z,11.20
2018-10-21T08:03:00.528Z,11.20
2018-10-21T08:05:46.164Z,11.20
2018-10-21T08:08:22.566Z,11.20
2018-10-21T08:10:56.965Z,11.30
2018-10-21T08:13:31.221Z,11.40
2018-10-21T08:16:05.715Z,11.60
2018-10-21T08:18:40.609Z,11.60
2018-10-21T08:21:15.071Z,11.70
2018-10-21T08:23:54.745Z,11.90
2018-10-21T08:26:29.060Z,12.00
2018-10-21T08:29:04.505Z,12.10
2018-10-21T08:31:39.246Z,12.30
2018-10-21T08:34:13.811Z,12.30
2018-10-21T08:36:51.444Z,12.40
2018-10-21T08:39:25.756Z,12.40
2018-10-21T08:42:00.186Z,12.40
2018-10-21T08:44:34.400Z,12.50
2018-10-21T08:47:08.921Z,12.50
2018-10-21T08:49:43.703Z,12.50
2018-10-21T08:52:18.220Z,12.50
2018-10-21T08:54:52.801Z,12.50
2018-10-21T08:57:27.301Z,12.50
2018-10-21T09:00:01.563Z,12.60
2018-10-21T09:02:36.172Z,12.70
2018-10-21T09:05:12.091Z,12.80
2018-10-21T09:07:46.701Z,12.80
2018-10-21T09:10:21.295Z,12.90
2018-10-21T09:12:55.518Z,13.00
2018-10-21T09:15:29.863Z,13.10
2018-10-21T09:18:04.645Z,13.40
2018-10-21T09:20:39.047Z,13.80
2018-10-21T09:23:15.196Z,14.00
2018-10-21T09:25:50.099Z,14.10
2018-10-21T09:28:24.460Z,14.30
2018-10-21T09:30:59.127Z,14.50
2018-10-21T09:33:33.377Z,14.60
2018-10-21T09:36:07.766Z,14.50
2018-10-21T09:38:42.861Z,14.40
2018-10-21T09:41:17.249Z,14.50
2018-10-21T09:43:51.614Z,14.50
2018-10-21T09:46:25.812Z,14.50
2018-10-21T09:49:00.219Z,14.60
2018-10-21T09:51:35.060Z,14.50
2018-10-21T09:54:09.934Z,14.50
2018-10-21T09:56:44.404Z,14.30
2018-10-21T09:59:18.741Z,14.30
2018-10-21T10:01:58.679Z,14.20
2018-10-21T10:04:33.165Z,14.20
2018-10-21T10:07:07.932Z,14.20
2018-10-21T10:09:42.093Z,14.30
2018-10-21T10:12:17.180Z,14.40
2018-10-21T10:14:51.731Z,14.60
2018-10-21T10:17:26.162Z,14.80
2018-10-21T10:20:00.574Z,14.90
2018-10-21T10:22:35.017Z,14.90
2018-10-21T10:25:10.413Z,14.70
2018-10-21T10:27:45.676Z,14.70
2018-10-21T10:30:21.190Z,14.80
2018-10-21T10:33:01.089Z,15.00
2018-10-21T10:35:35.621Z,15.20
2018-10-21T10:38:09.997Z,15.40
2018-10-21T10:40:44.641Z,15.60
2018-10-21T10:43:20.504Z,15.70
2018-10-21T10:45:54.923Z,15.60
2018-10-21T10:48:29.694Z,15.50
2018-10-21T10:51:04.380Z,15.30
2018-10-21T10:53:38.903Z,15.20
2018-10-21T10:56:13.389Z,15.10
2018-10-21T10:58:48.114Z,15.10
2018-10-21T11:01:22.616Z,15.10
2018-10-21T11:03:57.130Z,15.30
2018-10-21T11:06:31.455Z,15.30
2018-10-21T11:09:08.100Z,15.40
2018-10-21T11:11:42.344Z,15.40
2018-10-21T11:14:20.659Z,15.30
2018-10-21T11:16:55.089Z,15.40
2018-10-21T11:19:29.469Z,15.60
2018-10-21T11:22:03.848Z,15.50
2018-10-21T11:24:49.087Z,15.60
2018-10-21T11:27:24.788Z,15.80
2018-10-21T11:29:59.280Z,15.80
2018-10-21T11:32:34.320Z,15.60
2018-10-21T11:35:08.574Z,15.70
2018-10-21T11:37:42.946Z,15.70
2018-10-21T11:40:17.337Z,15.80
2018-10-21T11:42:52.153Z,15.80
2018-10-21T11:45:27.539Z,15.90
2018-10-21T11:48:02.003Z,16.00
2018-10-21T11:50:36.450Z,16.00
2018-10-21T11:53:11.889Z,16.10
2018-10-21T11:55:46.177Z,15.80
2018-10-21T11:58:20.737Z,15.80
2018-10-21T12:00:56.550Z,16.00
2018-10-21T12:03:30.876Z,16.20
2018-10-21T12:06:06.124Z,16.40
2018-10-21T12:08:40.471Z,16.70
2018-10-21T12:11:15.178Z,16.80
2018-10-21T12:13:51.384Z,16.70
2018-10-21T12:16:27.883Z,16.70
2018-10-21T12:19:02.358Z,16.50
2018-10-21T12:21:36.970Z,16.50
2018-10-21T12:24:11.297Z,16.50
2018-10-21T12:26:45.633Z,16.50
2018-10-21T12:29:22.159Z,16.40
2018-10-21T12:31:57.676Z,16.40
2018-10-21T12:34:31.933Z,16.80
2018-10-21T12:37:06.220Z,17.20
2018-10-21T12:39:40.573Z,17.50
2018-10-21T12:42:16.526Z,18.10
2018-10-21T12:44:50.960Z,18.70
2018-10-21T12:47:25.262Z,19.80
2018-10-21T12:49:59.700Z,20.30
2018-10-21T12:52:34.199Z,21.20
2018-10-21T12:55:09.450Z,20.50
2018-10-21T12:57:46.108Z,19.90
2018-10-21T13:00:20.800Z,19.20
2018-10-21T13:02:56.708Z,18.50
2018-10-21T13:05:31.091Z,18.70
2018-10-21T13:08:05.548Z,18.20
2018-10-21T13:10:40.168Z,17.90
2018-10-21T13:13:15.178Z,17.90
2018-10-21T13:15:50.403Z,19.50
2018-10-21T13:18:24.937Z,19.80
2018-10-21T13:21:01.554Z,19.30
2018-10-21T13:23:37.238Z,20.80
2018-10-21T13:26:11.478Z,22.30
2018-10-21T13:31:26.742Z,21.50
2018-10-21T13:34:09.083Z,22.20
2018-10-21T13:36:43.533Z,23.00
2018-10-21T13:39:18.040Z,24.00
2018-10-21T13:41:55.075Z,23.70
2018-10-21T13:44:31.099Z,24.20
2018-10-21T13:47:06.022Z,23.20
2018-10-21T13:49:41.003Z,21.30
2018-10-21T13:52:15.416Z,19.90
2018-10-21T13:54:49.524Z,19.20
2018-10-21T13:57:25.218Z,18.60
2018-10-21T13:59:59.759Z,18.30
2018-10-21T14:02:34.284Z,18.10
2018-10-21T14:05:09.035Z,17.60
2018-10-21T14:07:43.393Z,17.50
2018-10-21T14:10:18.009Z,17.40
2018-10-21T14:12:52.777Z,17.40
2018-10-21T14:15:27.713Z,17.50
2018-10-21T14:18:02.489Z,17.70
2018-10-21T14:20:38.336Z,17.80
2018-10-21T14:23:12.922Z,17.70
2018-10-21T14:25:49.606Z,17.60
2018-10-21T14:28:25.966Z,17.80
2018-10-21T14:31:00.438Z,17.70
2018-10-21T14:33:36.109Z,18.80
2018-10-21T14:36:11.369Z,18.60
2018-10-21T14:38:46.846Z,18.30
2018-10-21T14:41:21.845Z,18.50
2018-10-21T14:43:58.017Z,18.30
2018-10-21T14:46:36.567Z,17.90
2018-10-21T14:49:11.026Z,17.60
2018-10-21T14:51:46.282Z,17.30
2018-10-21T14:54:22.740Z,17.20
2018-10-21T14:57:00.301Z,17.10
2018-10-21T14:59:42.426Z,17.00
2018-10-21T15:03:24.365Z,17.20
2018-10-21T15:06:00.550Z,19.30
2018-10-21T15:08:35.142Z,22.10
2018-10-21T15:11:21.921Z,23.40
2018-10-21T15:13:58.949Z,24.20
2018-10-21T15:16:34.489Z,24.50
2018-10-21T15:19:09.306Z,24.30
2018-10-21T15:21:48.990Z,23.60
2018-10-21T15:24:24.429Z,23.30
2018-10-21T15:29:44.112Z,20.60
2018-10-21T15:32:22.141Z,19.80
2018-10-21T15:34:59.403Z,18.80
2018-10-21T15:37:38.478Z,18.20
2018-10-21T15:40:14.665Z,17.60
2018-10-21T15:42:49.571Z,17.30
2018-10-21T15:45:24.767Z,16.90
2018-10-21T15:47:59.453Z,16.40
2018-10-21T15:50:36.260Z,16.10
2018-10-21T15:53:11.758Z,15.80
2018-10-21T15:55:47.924Z,15.60
2018-10-21T15:58:22.864Z,15.30
2018-10-21T16:00:57.267Z,15.20
2018-10-21T16:03:31.597Z,15.10
2018-10-21T16:06:06.494Z,14.90
2018-10-21T16:08:40.815Z,14.80
2018-10-21T16:11:15.126Z,14.60
2018-10-21T16:13:49.452Z,14.50
2018-10-21T16:16:23.908Z,14.40
2018-10-21T16:18:58.332Z,14.30
2018-10-21T16:21:34.291Z,14.20
2018-10-21T16:24:08.651Z,14.00
2018-10-21T16:26:43.386Z,13.90
2018-10-21T16:29:17.591Z,13.80
2018-10-21T16:31:53.730Z,13.60
2018-10-21T16:34:28.959Z,13.50
2018-10-21T16:37:03.500Z,13.40
2018-10-21T16:39:39.558Z,13.20
2018-10-21T16:42:14.220Z,13.00
2018-10-21T16:44:48.908Z,12.80
2018-10-21T16:47:23.242Z,12.60
2018-10-21T16:50:00.023Z,12.50
2018-10-21T16:52:35.898Z,12.30
2018-10-21T16:55:12.098Z,12.20
2018-10-21T16:57:46.678Z,12.20
2018-10-21T17:00:21.343Z,12.20
2018-10-21T17:02:55.624Z,12.00
2018-10-21T17:05:30.150Z,12.00
2018-10-21T17:08:06.361Z,11.80
2018-10-21T17:10:40.821Z,11.70
2018-10-21T17:13:15.020Z,11.60
2018-10-21T17:15:49.382Z,11.50
2018-10-21T17:18:24.681Z,11.40
2018-10-21T17:20:59.833Z,11.30
2018-10-21T17:23:34.448Z,11.20
2018-10-21T17:26:08.775Z,11.10
2018-10-21T17:28:43.321Z,11.00
2018-10-21T17:31:17.655Z,10.90
2018-10-21T17:33:52.674Z,11.00
2018-10-21T17:36:27.220Z,10.90
2018-10-21T17:39:01.957Z,10.90
2018-10-21T17:41:36.601Z,10.80
2018-10-21T17:44:11.356Z,10.70
2018-10-21T17:46:45.845Z,10.60
2018-10-21T17:49:21.109Z,10.50
2018-10-21T17:51:55.579Z,10.50
2018-10-21T17:54:29.755Z,10.40
2018-10-21T17:57:04.075Z,10.30
2018-10-21T17:59:38.387Z,10.30
2018-10-21T18:02:12.708Z,10.20
2018-10-21T18:04:47.039Z,10.20
2018-10-21T18:07:21.422Z,10.20
2018-10-21T18:09:56.512Z,10.10
2018-10-21T18:12:30.932Z,10.10
2018-10-21T18:15:06.866Z,10.00
2018-10-21T18:17:42.395Z,9.90
2018-10-21T18:20:16.790Z,9.90
2018-10-21T18:22:51.033Z,9.90
2018-10-21T18:25:26.049Z,9.80
2018-10-21T18:28:00.732Z,9.80
2018-10-21T18:30:34.900Z,9.80
2018-10-21T18:33:10.153Z,9.80
2018-10-21T18:35:44.562Z,9.80
2018-10-21T18:38:20.201Z,9.80
2018-10-21T18:40:54.805Z,9.80
2018-10-21T18:43:29.456Z,9.70
2018-10-21T18:46:03.921Z,9.60
2018-10-21T18:48:38.713Z,9.60
2018-10-21T18:51:13.104Z,9.60
2018-10-21T18:53:47.645Z,9.60
2018-10-21T18:56:22.890Z,9.50
2018-10-21T18:58:57.379Z,9.40
2018-10-21T19:01:31.608Z,9.40
2018-10-21T19:04:06.044Z,9.40
2018-10-21T19:06:40.288Z,9.40
2018-10-21T19:09:14.572Z,9.40
2018-10-21T19:11:49.409Z,9.30
2018-10-21T19:14:23.730Z,9.30
2018-10-21T19:16:58.191Z,9.30
2018-10-21T19:19:32.485Z,9.20
2018-10-21T19:22:07.888Z,9.10
2018-10-21T19:24:42.372Z,9.10
2018-10-21T19:27:16.798Z,9.00
2018-10-21T19:29:51.002Z,9.00
2018-10-21T19:32:28.792Z,8.90
2018-10-21T19:35:03.184Z,8.90
2018-10-21T19:37:39.882Z,8.90
2018-10-21T19:40:15.418Z,8.90
2018-10-21T19:42:51.788Z,8.90
2018-10-21T19:45:26.320Z,8.90
2018-10-21T19:48:00.606Z,8.80
2018-10-21T19:50:35.553Z,8.80
2018-10-21T19:53:11.045Z,8.80
2018-10-21T19:55:46.167Z,8.80
2018-10-21T19:58:20.821Z,8.80
2018-10-21T20:00:56.826Z,8.80
2018-10-21T20:03:31.846Z,8.80
2018-10-21T20:06:07.745Z,8.80
2018-10-21T20:08:42.440Z,8.70
2018-10-21T20:11:17.073Z,8.60
2018-10-21T20:13:51.526Z,8.60
2018-10-21T20:16:26.144Z,8.60
2018-10-21T20:19:00.911Z,8.60
2018-10-21T20:21:35.320Z,8.50
2018-10-21T20:24:09.875Z,8.60
2018-10-21T20:26:45.795Z,8.60
2018-10-21T20:29:21.097Z,8.50
2018-10-21T20:31:55.765Z,8.50
2018-10-21T20:34:30.914Z,8.40
2018-10-21T20:37:06.213Z,8.40
2018-10-21T20:39:41.091Z,8.40
2018-10-21T20:42:15.648Z,8.40
2018-10-21T20:44:50.781Z,8.40
2018-10-21T20:47:25.156Z,8.40
2018-10-21T20:49:59.687Z,8.40
2018-10-21T20:52:34.155Z,8.30
2018-10-21T20:55:10.040Z,8.40
2018-10-21T20:57:44.788Z,8.30
2018-10-21T21:00:21.293Z,8.30
2018-10-21T21:02:57.337Z,8.30
2018-10-21T21:05:32.613Z,8.20
2018-10-21T21:08:17.946Z,8.10
2018-10-21T21:10:54.408Z,8.10
2018-10-21T21:13:33.565Z,8.10
2018-10-21T21:16:08.860Z,8.10
2018-10-21T21:18:43.367Z,8.10
2018-10-21T21:21:17.948Z,8.10
2018-10-21T21:23:52.447Z,8.10
2018-10-21T21:26:26.854Z,8.00
2018-10-21T21:29:02.380Z,8.00
2018-10-21T21:31:37.273Z,8.00
2018-10-21T21:34:14.263Z,8.00
2018-10-21T21:36:49.772Z,7.90
2018-10-21T21:39:25.472Z,7.90
2018-10-21T21:42:00.133Z,7.80
2018-10-21T21:44:34.518Z,7.80
2018-10-21T21:47:17.528Z,7.80
2018-10-21T21:49:56.515Z,7.80
2018-10-21T21:52:31.029Z,7.80
2018-10-21T21:55:06.886Z,7.80
2018-10-21T21:57:41.454Z,7.80
2018-10-21T22:00:16.091Z,7.80
2018-10-21T22:02:50.701Z,7.80
2018-10-21T22:05:25.276Z,7.80
2018-10-21T22:07:59.482Z,7.80
2018-10-21T22:10:34.014Z,7.80
2018-10-21T22:13:08.388Z,7.80
2018-10-21T22:15:42.732Z,7.70
2018-10-21T22:18:17.097Z,7.70
2018-10-21T22:20:51.362Z,7.80
2018-10-21T22:23:25.796Z,7.70
2018-10-21T22:26:00.182Z,7.70
2018-10-21T22:28:34.605Z,7.70
2018-10-21T22:31:08.877Z,7.70
2018-10-21T22:33:43.181Z,7.60
2018-10-21T22:36:17.508Z,7.60
2018-10-21T22:38:51.825Z,7.60
2018-10-21T22:41:26.171Z,7.60
2018-10-21T22:44:00.581Z,7.60
2018-10-21T22:46:34.928Z,7.60
2018-10-21T22:49:09.206Z,7.60
2018-10-21T22:51:44.559Z,7.60
2018-10-21T22:54:18.907Z,7.60
2018-10-21T22:56:53.235Z,7.60
2018-10-21T22:59:27.545Z,7.60
2018-10-21T23:02:01.747Z,7.60
2018-10-21T23:04:36.116Z,7.60
2018-10-21T23:07:10.333Z,7.60
2018-10-21T23:09:44.646Z,7.50
2018-10-21T23:12:19.081Z,7.50
2018-10-21T23:14:53.297Z,7.40
2018-10-21T23:17:27.725Z,7.40
2018-10-21T23:20:02.117Z,7.40
2018-10-21T23:22:36.344Z,7.40
2018-10-21T23:25:10.587Z,7.40
2018-10-21T23:27:44.908Z,7.40
2018-10-21T23:30:19.382Z,7.30
2018-10-21T23:32:53.608Z,7.20
2018-10-21T23:35:27.896Z,7.30
2018-10-21T23:38:02.222Z,7.40
2018-10-21T23:40:36.562Z,7.40
2018-10-21T23:43:10.976Z,7.50
2018-10-21T23:45:45.332Z,7.60
2018-10-21T23:48:19.800Z,7.70
2018-10-21T23:50:54.406Z,7.80
2018-10-21T23:53:28.813Z,8.00
2018-10-21T23:56:03.224Z,8.10
2018-10-21T23:58:37.542Z,8.20
